Latest Weather Observations for Holsworthy

IDN60801

Issued at 5:03 pm EST Saturday 1 October 2016 (issued every 30 minutes, with the page automatically refreshed every 10 minutes)

About weather observations | Map of weather stations | Latest weather observations for NSW | Other Formats
Station Details ID: 066161 Name: HOLSWORTHY AERODROME AWS Lat: -33.99 Lon: 150.95 Height: 68.16 m
Data from the previous 72 hours. | See also: Recent months at Holsworthy
Date/Time
EST
Temp
°C
App
Temp
°C
Dew
Point
°C
Rel
Hum
%
Delta-T
°C
Wind Press
QNH
hPa
Press
MSL
hPa
Rain since
9am
mm
Dir  Spd
km/h
Gust
km/h
Spd
kts
Gust
kts
01/05:00pm 19.0 14.6 4.7 39 6.9 W 17 28 9 15 1007.3 1007.2 -
01/04:30pm 18.4 13.6 4.9 41 6.5 WNW 19 33 10 18 1006.9 1006.8 0.0
01/04:00pm 18.7 13.1 5.5 42 6.5 WNW 24 35 13 19 1006.4 1006.2 0.0
01/03:30pm 18.9 14.4 6.1 43 6.3 WNW 19 32 10 17 1006.2 1006.0 0.0
01/03:00pm 19.1 13.7 6.2 43 6.4 WNW 24 48 13 26 1006.1 1005.9 0.0
01/02:43pm 19.1 12.7 5.2 40 6.8 WNW 28 48 15 26 1005.5 1005.3 0.0
01/02:30pm 20.1 14.2 5.7 39 7.1 W 26 44 14 24 1005.4 1005.2 0.0
01/02:09pm 20.4 14.1 5.6 38 7.3 WNW 28 48 15 26 1005.6 1005.4 0.0
01/02:00pm 20.6 15.2 6.5 40 7.2 WNW 24 37 13 20 1005.6 1005.4 0.0
01/01:30pm 21.4 16.1 6.9 39 7.4 WNW 24 37 13 20 1005.7 1005.5 0.0
01/01:21pm 20.9 14.8 6.4 39 7.3 WNW 28 46 15 25 1005.6 1005.4 0.0
01/01:00pm 20.2 14.0 6.2 40 7.0 WNW 28 44 15 24 1005.5 1005.3 0.0
01/12:30pm 20.8 14.2 6.0 38 7.4 WNW 30 54 16 29 1005.5 1005.3 0.0
01/12:04pm 20.5 14.3 6.1 39 7.2 WNW 28 46 15 25 1005.4 1005.2 0.0
01/12:00pm 20.2 13.2 5.8 39 7.2 W 32 46 17 25 1005.4 1005.2 0.0
01/11:36am 19.6 12.4 4.9 38 7.2 WNW 32 52 17 28 1005.4 1005.2 0.0
01/11:30am 19.8 13.1 5.8 40 6.9 WNW 30 44 16 24 1005.2 1005.0 0.0
01/11:00am 20.0 13.7 7.4 44 6.5 WNW 30 57 16 31 1005.2 1005.0 0.0
01/10:35am 19.0 12.7 5.8 42 6.5 NW 28 46 15 25 1005.0 1004.8 0.0
01/10:30am 19.4 13.7 6.8 44 6.4 WNW 26 41 14 22 1005.3 1005.1 0.0
01/10:00am 19.2 13.7 6.0 42 6.6 WNW 24 39 13 21 1006.0 1005.8 0.0
01/09:30am 19.2 13.9 6.7 44 6.3 WNW 24 39 13 21 1006.1 1006.0 0.0
01/09:00am 18.3 13.3 6.5 46 5.9 WNW 22 37 12 20 1005.9 1005.8 0.0
01/08:30am 18.0 13.5 7.1 49 5.5 WNW 20 32 11 17 1005.6 1005.5 0.0
01/08:00am 17.3 12.8 6.8 50 5.2 NW 20 32 11 17 1005.4 1005.3 0.0
01/07:30am 16.8 12.9 6.9 52 4.9 NW 17 28 9 15 1005.1 1005.0 0.0
01/07:00am 13.5 11.1 7.1 65 3.1 NNW 9 13 5 7 1004.8 1004.7 0.0
01/06:30am 13.5 10.6 6.6 63 3.3 NW 11 15 6 8 1004.4 1004.3 0.0
01/06:00am 13.5 10.1 6.1 61 3.5 NW 13 19 7 10 1003.7 1003.6 0.0
01/05:30am 13.2 9.5 6.1 62 3.4 NW 15 20 8 11 1003.1 1003.0 0.0
01/05:00am 11.5 8.6 6.4 71 2.4 NW 11 20 6 11 1002.6 1002.5 0.0
01/04:30am 9.3 7.2 5.7 78 1.6 NW 6 9 3 5 1002.1 1002.0 0.0
01/04:00am 9.9 7.7 6.3 78 1.7 NW 7 11 4 6 1001.7 1001.6 0.0
01/03:30am 7.9 5.7 5.5 85 1.1 E 6 9 3 5 1001.3 1001.2 0.0
01/03:00am 7.9 6.9 5.5 85 1.1 CALM 0 0 0 0 1001.1 1001.0 0.0
01/02:30am 8.5 6.1 5.4 81 1.4 SE 7 9 4 5 1001.2 1001.1 0.0
01/02:00am 8.4 5.7 5.7 83 1.2 SE 9 11 5 6 1001.3 1001.2 0.0
01/01:30am 9.1 7.7 5.7 79 1.6 N 2 7 1 4 1001.3 1001.2 0.0
01/01:00am 9.8 7.4 5.2 73 2.1 N 7 9 4 5 1001.6 1001.5 0.0
01/12:30am 11.5 9.1 5.4 66 2.8 WNW 7 9 4 5 1001.7 1001.6 0.0
01/12:00am 12.3 9.1 5.2 62 3.3 WNW 11 15 6 8 1001.7 1001.6 0.0
 
Date/Time
EST
Temp
°C
App
Temp
°C
Dew
Point
°C
Rel
Hum
%
Delta-T
°C
Wind Press
QNH
hPa
Press
MSL
hPa
Rain since
9am
mm
Dir  Spd
km/h
Gust
km/h
Spd
kts
Gust
kts
30/11:30pm 12.7 10.0 5.4 61 3.4 WNW 9 15 5 8 1002.1 1002.0 0.0
30/11:00pm 12.7 9.5 4.9 59 3.6 NW 11 15 6 8 1002.0 1001.9 0.0
30/10:30pm 13.3 9.6 4.5 55 4.0 NW 13 17 7 9 1002.2 1002.1 0.0
30/10:00pm 14.2 8.4 4.2 51 4.6 WNW 24 41 13 22 1002.0 1001.9 0.0
30/09:30pm 13.6 9.8 3.9 52 4.4 NW 13 24 7 13 1001.6 1001.5 0.0
30/09:00pm 13.1 9.4 4.3 55 4.0 NW 13 20 7 11 1001.4 1001.3 0.0
30/08:30pm 12.8 9.5 4.5 57 3.8 WNW 11 15 6 8 1001.6 1001.5 0.0
30/08:00pm 13.2 9.9 4.4 55 4.1 WNW 11 17 6 9 1001.5 1001.4 0.0
30/07:30pm 13.5 10.2 4.4 54 4.2 WNW 11 20 6 11 1001.3 1001.2 0.0
30/07:00pm 13.9 10.2 4.5 53 4.4 NW 13 20 7 11 1000.7 1000.6 0.0
30/06:30pm 13.9 10.2 4.5 53 4.3 NW 13 24 7 13 1000.5 1000.4 0.0
30/06:00pm 13.2 9.6 5.1 58 3.8 NNW 13 17 7 9 1000.0 999.9 0.0
30/05:30pm 14.0 9.6 4.9 54 4.2 NNW 17 28 9 15 999.6 999.5 0.0
30/05:00pm 14.0 8.6 4.3 52 4.5 NNW 22 32 12 17 999.1 999.1 0.0
30/04:30pm 16.6 10.8 4.3 44 5.8 NW 24 39 13 21 998.5 998.5 0.0
30/04:00pm 16.4 9.7 3.5 42 6.0 NW 28 46 15 25 998.1 998.1 0.0
30/03:30pm 16.6 9.1 3.3 41 6.1 NW 32 54 17 29 997.8 997.8 0.0
30/03:13pm 16.9 10.1 3.2 40 6.3 NW 28 46 15 25 997.7 997.7 0.0
30/03:00pm 17.0 10.2 3.3 40 6.4 NW 28 48 15 26 997.5 997.5 0.0
30/02:50pm 16.9 10.4 4.6 44 5.8 NNW 28 46 15 25 997.5 997.5 0.0
30/02:30pm 16.2 10.9 5.2 48 5.3 NNW 22 37 12 20 997.8 997.8 0.0
30/02:00pm 17.3 12.3 6.5 49 5.4 NNW 22 43 12 23 997.8 997.8 0.0
30/01:30pm 16.4 11.1 5.1 47 5.4 NW 22 39 12 21 998.0 998.0 0.0
30/01:00pm 17.4 11.4 5.4 45 5.8 NNW 26 44 14 24 997.9 997.9 0.0
30/12:30pm 17.4 12.2 5.4 45 5.8 NNW 22 37 12 20 998.1 998.1 0.0
30/12:00pm 16.9 12.0 5.2 46 5.7 NNW 20 33 11 18 998.2 998.2 0.0
30/11:30am 16.7 11.0 4.7 45 5.7 NW 24 44 13 24 998.4 998.4 0.0
30/11:00am 16.4 11.6 4.8 46 5.5 NW 19 30 10 16 998.5 998.5 0.0
30/10:30am 16.3 11.6 5.0 47 5.4 NW 19 33 10 18 998.4 998.4 0.0
30/10:00am 16.6 10.7 4.0 43 5.9 NNW 24 43 13 23 998.3 998.3 0.0
30/09:30am 16.1 11.3 4.5 46 5.5 NNW 19 30 10 16 998.4 998.4 0.0
30/09:00am 16.3 11.3 4.7 46 5.5 NNW 20 32 11 17 998.6 998.6 0.6
30/08:30am 15.6 10.2 4.6 48 5.2 NNW 22 35 12 19 998.6 998.6 0.6
30/08:00am 15.3 10.2 4.1 47 5.2 N 20 33 11 18 998.5 998.5 0.6
30/07:30am 14.4 9.5 4.1 50 4.7 N 19 32 10 17 998.6 998.6 0.6
30/07:00am 13.2 8.6 3.6 52 4.4 N 17 26 9 14 998.3 998.3 0.6
30/06:30am 11.8 8.4 4.1 59 3.5 N 11 17 6 9 998.2 998.2 0.6
30/06:00am 11.2 7.3 3.5 59 3.4 N 13 17 7 9 997.7 997.7 0.6
30/05:30am 10.5 6.9 2.8 59 3.3 N 11 15 6 8 997.6 997.6 0.6
30/05:00am 10.5 7.6 2.8 59 3.4 NW 7 13 4 7 997.4 997.4 0.6
30/04:30am 10.6 6.6 2.9 59 3.3 NNW 13 20 7 11 997.1 997.1 0.6
30/04:00am 11.0 7.4 2.8 57 3.6 NNW 11 17 6 9 997.5 997.5 0.6
30/03:30am 11.6 7.9 2.6 54 3.9 NNW 11 17 6 9 997.7 997.7 0.6
30/03:00am 11.8 8.2 2.8 54 4.0 N 11 20 6 11 997.8 997.8 0.6
30/02:30am 12.2 7.5 2.9 53 4.1 NNW 17 26 9 14 997.8 997.8 0.6
30/02:00am 12.1 8.1 3.1 54 4.0 NNW 13 20 7 11 998.2 998.2 0.6
30/01:30am 12.6 8.9 2.2 49 4.5 N 11 17 6 9 998.7 998.7 0.6
30/01:00am 13.0 8.5 2.3 48 4.7 NW 15 26 8 14 999.0 999.0 0.6
30/12:30am 12.1 8.1 2.8 53 4.1 NNW 13 17 7 9 999.4 999.3 0.6
30/12:00am 12.1 8.9 2.8 53 4.1 N 9 13 5 7 999.4 999.3 0.6
 
Date/Time
EST
Temp
°C
App
Temp
°C
Dew
Point
°C
Rel
Hum
%
Delta-T
°C
Wind Press
QNH
hPa
Press
MSL
hPa
Rain since
9am
mm
Dir  Spd
km/h
Gust
km/h
Spd
kts
Gust
kts
29/11:30pm 12.8 8.4 2.9 51 4.4 NNW 15 20 8 11 998.9 998.9 0.6
29/11:00pm 13.2 9.6 3.0 50 4.6 NNW 11 19 6 10 998.8 998.8 0.6
29/10:30pm 14.0 10.0 2.9 47 5.0 NNW 13 19 7 10 998.5 998.5 0.6
29/10:00pm 14.6 10.2 2.8 45 5.3 NW 15 24 8 13 998.5 998.5 0.6
29/09:30pm 15.6 8.6 2.1 40 6.0 NW 28 61 15 33 998.4 998.4 0.6
29/09:25pm 15.7 8.7 2.2 40 6.0 NW 28 61 15 33 998.3 998.3 0.6
29/09:00pm 14.5 10.2 3.3 47 5.1 NW 15 22 8 12 997.7 997.7 0.6
29/08:30pm 13.8 10.9 4.4 53 4.3 WNW 9 13 5 7 997.3 997.3 0.6
29/08:00pm 14.5 11.2 4.8 52 4.6 NW 11 17 6 9 997.3 997.3 0.6
29/07:30pm 14.9 11.9 4.3 49 4.9 WNW 9 17 5 9 997.0 997.0 0.6
29/07:00pm 15.5 12.4 3.6 45 5.5 NW 9 15 5 8 996.6 996.5 0.6
29/06:30pm 16.1 12.9 3.2 42 5.9 WNW 9 13 5 7 996.0 995.9 0.6
29/06:00pm 17.5 13.1 2.7 37 6.8 WNW 15 24 8 13 995.4 995.3 0.6
29/05:30pm 18.9 13.8 3.1 35 7.4 NW 19 32 10 17 995.1 995.0 0.6
29/05:00pm 19.8 13.2 2.2 31 8.2 WNW 26 39 14 21 994.6 994.5 0.6
29/04:30pm 20.3 15.7 3.9 34 7.9 WNW 17 30 9 16 994.0 993.9 0.6
29/04:00pm 21.5 17.1 6.6 38 7.7 NNW 19 43 10 23 993.6 993.5 0.6
29/03:30pm 21.0 18.4 11.9 56 5.1 NNW 17 28 9 15 993.2 993.1 0.6
29/03:00pm 20.2 17.9 12.9 63 4.2 N 17 22 9 12 993.5 993.4 0.6
29/02:30pm 19.2 17.0 13.2 68 3.4 N 17 26 9 14 994.7 994.6 0.6
29/02:00pm 18.4 16.7 13.7 74 2.7 NW 15 22 8 12 994.8 994.7 0.6
29/01:30pm 18.7 16.4 13.1 70 3.2 N 17 26 9 14 994.9 994.8 0.6
29/01:00pm 17.1 15.4 13.6 80 2.0 NNE 15 20 8 11 995.9 995.8 0.6
29/12:30pm 16.7 15.6 13.0 79 2.1 NNE 11 19 6 10 996.6 996.5 0.4
29/12:00pm 15.7 13.7 12.8 83 1.6 NNE 15 22 8 12 997.2 997.2 0.4
29/11:30am 14.2 13.2 12.4 89 1.0 NNE 9 13 5 7 997.9 997.9 0.4
29/11:00am 12.9 12.6 11.6 92 0.7 NNE 4 7 2 4 998.7 998.7 0.4
29/10:30am 11.8 11.7 10.9 94 0.5 WNW 2 6 1 3 999.3 999.2 0.4
29/10:00am 11.3 11.5 10.4 94 0.5 CALM 0 6 0 3 999.9 999.8 0.4
29/09:30am 11.3 10.4 10.7 96 0.3 W 6 7 3 4 1000.3 1000.2 0.2
29/09:06am 10.9 9.8 10.1 95 0.4 SSW 6 7 3 4 1000.6 1000.5 0.0
29/09:00am 10.8 9.8 10.2 96 0.3 SW 6 7 3 4 1000.8 1000.7 3.2
29/08:35am 10.6 9.5 10.0 96 0.3 NW 6 7 3 4 1001.3 1001.2 2.6
29/08:30am 10.5 9.4 9.9 96 0.3 NW 6 6 3 3 1001.5 1001.4 2.4
29/08:01am 10.6 9.8 9.8 95 0.4 WNW 4 9 2 5 1001.7 1001.6 1.6
29/08:00am 10.8 10.1 10.0 95 0.4 W 4 7 2 4 1001.6 1001.5 1.6
29/07:48am 11.0 10.0 10.2 95 0.4 SE 6 7 3 4 1001.5 1001.4 1.4
29/07:30am 10.8 9.1 10.0 95 0.4 SE 9 11 5 6 1001.4 1001.3 0.8
29/07:25am 10.6 8.5 9.8 95 0.4 ESE 11 17 6 9 1001.3 1001.2 0.6
29/07:09am 9.6 9.3 8.5 93 0.5 CALM 0 0 0 0 1002.1 1002.0 0.4
29/07:00am 9.9 9.6 8.8 93 0.5 CALM 0 4 0 2 1002.3 1002.2 0.0
29/06:30am 10.6 10.1 9.4 92 0.6 ESE 2 9 1 5 1002.1 1002.0 0.0
29/06:00am 10.9 9.4 9.3 90 0.8 SE 7 11 4 6 1002.6 1002.5 0.0
29/05:30am 10.2 9.9 8.5 89 0.8 CALM 0 6 0 3 1003.5 1003.4 0.0
29/05:00am 9.4 8.9 7.7 89 0.8 CALM 0 0 0 0 1003.2 1003.1 0.0
29/04:30am 8.7 6.8 6.5 86 1.0 SW 6 7 3 4 1003.3 1003.2 0.0
29/04:00am 10.1 7.8 7.3 83 1.3 SE 9 9 5 5 1003.7 1003.6 0.0
29/03:30am 9.5 7.1 7.1 85 1.1 SE 9 11 5 6 1004.2 1004.1 0.0
29/03:00am 9.1 7.2 6.5 84 1.2 SE 6 7 3 4 1005.1 1005.0 0.0
29/02:30am 9.0 7.4 6.4 84 1.2 SSE 4 7 2 4 1005.8 1005.7 0.0
29/02:00am 9.2 8.0 6.6 84 1.2 S 2 7 1 4 1006.5 1006.4 0.0
29/01:30am 9.5 7.6 6.8 83 1.3 SW 6 7 3 4 1007.3 1007.2 0.0
29/01:00am 8.7 6.7 6.2 84 1.2 SW 6 7 3 4 1007.7 1007.6 0.0
29/12:30am 9.3 8.4 6.2 81 1.4 CALM 0 0 0 0 1008.1 1008.0 0.0
29/12:00am 9.3 7.7 6.4 82 1.4 SSW 4 6 2 3 1008.4 1008.3 0.0
 
Date/Time
EST
Temp
°C
App
Temp
°C
Dew
Point
°C
Rel
Hum
%
Delta-T
°C
Wind Press
QNH
hPa
Press
MSL
hPa
Rain since
9am
mm
Dir  Spd
km/h
Gust
km/h
Spd
kts
Gust
kts
28/11:30pm 9.9 8.7 6.4 79 1.6 S 2 7 1 4 1008.9 1008.8 0.0
28/11:00pm 9.9 7.9 6.3 78 1.7 SW 6 7 3 4 1009.6 1009.6 0.0
28/10:30pm 9.6 7.9 6.0 78 1.7 WSW 4 7 2 4 1009.9 1009.9 0.0
28/10:00pm 10.7 9.9 6.5 75 2.0 CALM 0 0 0 0 1010.0 1010.0 0.0
28/09:30pm 10.8 10.0 6.4 74 2.1 CALM 0 0 0 0 1010.3 1010.3 0.0
28/09:00pm 11.1 10.3 6.3 72 2.3 CALM 0 0 0 0 1010.5 1010.5 0.0
28/08:30pm 11.7 10.8 6.0 68 2.7 CALM 0 0 0 0 1010.5 1010.5 0.0
28/08:00pm 14.3 12.6 5.9 57 4.0 ENE 4 7 2 4 1010.6 1010.6 0.0
28/07:30pm 14.8 12.5 5.6 54 4.4 E 7 11 4 6 1010.4 1010.4 0.0
28/07:00pm 15.0 12.3 5.5 53 4.5 E 9 11 5 6 1010.3 1010.3 0.0
28/06:30pm 15.5 12.9 6.0 53 4.6 E 9 13 5 7 1010.3 1010.3 0.0
28/06:00pm 16.2 13.6 6.1 51 4.9 E 9 15 5 8 1010.1 1010.1 0.0
28/05:30pm 17.0 13.2 5.9 48 5.4 E 15 20 8 11 1010.2 1010.2 0.0

Other Formats:

Comma delimited format used in spreadsheet applications
http://www.bom.gov.au/fwo/IDN60801/IDN60801.95761.axf

JavaScript Object Notation format (JSON) in row-major order
http://www.bom.gov.au/fwo/IDN60801/IDN60801.95761.json